Time;durP1;ratioP1;P1;durP2;ratioP2;P2;SDS_P1;SDS_P2;PMS_P1;PMS_P2;Temp;Humidity;BMP_temperature;BMP_pressure;BME280_temperature;BME280_humidity;BME280_pressure;Samples;Min_cycle;Max_cycle;Signal;HPM_P1;HPM_P2
2022/03/16 00:02:11;;;;;;;20.63;15.67;;;;;;;;;;6199512;23;20152;-82
2022/03/16 00:04:37;;;;;;;19.93;15.90;;;;;;;;;;6202038;23;20155;-82
2022/03/16 00:07:03;;;;;;;18.37;16.10;;;;;;;;;;6202511;23;20149;-82
2022/03/16 00:09:29;;;;;;;18.87;16.87;;;;;;;;;;6200613;23;20227;-82
2022/03/16 00:11:55;;;;;;;19.93;16.03;;;;;;;;;;6201617;23;20202;-82
2022/03/16 00:14:21;;;;;;;16.80;15.00;;;;;;;;;;6200611;23;20173;-82
2022/03/16 00:16:47;;;;;;;18.73;15.80;;;;;;;;;;6201037;23;20181;-82
2022/03/16 00:19:13;;;;;;;15.70;14.20;;;;;;;;;;6199519;23;20175;-82
2022/03/16 00:21:39;;;;;;;20.93;16.33;;;;;;;;;;6202162;23;20153;-82
2022/03/16 00:24:05;;;;;;;18.90;15.23;;;;;;;;;;6200614;23;20149;-82
2022/03/16 00:26:31;;;;;;;17.93;15.10;;;;;;;;;;6203718;23;20148;-82
2022/03/16 00:28:57;;;;;;;18.63;15.60;;;;;;;;;;6205254;23;20240;-82
2022/03/16 00:31:23;;;;;;;19.23;15.20;;;;;;;;;;6179743;23;20156;-82
2022/03/16 00:33:49;;;;;;;19.13;14.80;;;;;;;;;;6205300;23;20158;-82
2022/03/16 00:36:17;;;;;;;17.37;14.87;;;;;;;;;;6202011;23;20179;-82
2022/03/16 00:38:43;;;;;;;20.20;15.83;;;;;;;;;;6202104;23;20164;-82
2022/03/16 00:41:09;;;;;;;16.77;14.20;;;;;;;;;;6203479;23;20147;-82
2022/03/16 00:43:36;;;;;;;16.93;14.80;;;;;;;;;;6200338;23;20623;-82
2022/03/16 00:46:02;;;;;;;16.33;14.47;;;;;;;;;;6200690;23;20600;-82
2022/03/16 00:48:28;;;;;;;17.83;14.43;;;;;;;;;;6201420;23;20231;-82
2022/03/16 00:50:54;;;;;;;18.37;16.00;;;;;;;;;;6201356;23;20211;-82
2022/03/16 00:53:20;;;;;;;16.07;14.37;;;;;;;;;;6201347;23;20492;-82
2022/03/16 00:55:46;;;;;;;18.27;15.53;;;;;;;;;;6201975;23;20179;-82
2022/03/16 00:58:12;;;;;;;17.17;14.80;;;;;;;;;;6201149;23;20217;-82
2022/03/16 01:00:38;;;;;;;16.53;14.77;;;;;;;;;;6201859;23;20197;-82
2022/03/16 01:03:04;;;;;;;17.67;14.40;;;;;;;;;;6202078;23;20158;-82
2022/03/16 01:05:30;;;;;;;16.70;14.20;;;;;;;;;;6201765;23;20158;-83
2022/03/16 01:07:56;;;;;;;18.13;14.90;;;;;;;;;;6174398;23;20743;-82
2022/03/16 01:10:22;;;;;;;17.00;14.90;;;;;;;;;;6200394;23;20189;-82
2022/03/16 01:12:48;;;;;;;18.13;15.53;;;;;;;;;;6200043;23;20484;-82
2022/03/16 01:15:14;;;;;;;21.23;16.53;;;;;;;;;;6200588;23;20198;-82
2022/03/16 01:17:40;;;;;;;17.33;15.33;;;;;;;;;;6200856;23;20202;-82
2022/03/16 01:20:07;;;;;;;18.37;16.00;;;;;;;;;;6201002;23;20169;-84
2022/03/16 01:22:33;;;;;;;17.43;14.83;;;;;;;;;;6199712;23;20151;-80
2022/03/16 01:24:59;;;;;;;34.13;19.63;;;;;;;;;;6198215;23;20232;-80
2022/03/16 01:27:25;;;;;;;78.90;36.00;;;;;;;;;;6199175;23;20157;-80
2022/03/16 01:29:51;;;;;;;29.77;18.97;;;;;;;;;;6199196;23;20193;-80
2022/03/16 01:32:17;;;;;;;18.83;15.33;;;;;;;;;;6205466;23;20146;-80
2022/03/16 01:34:43;;;;;;;24.47;16.37;;;;;;;;;;6208379;23;20155;-82
2022/03/16 01:37:10;;;;;;;16.80;14.43;;;;;;;;;;6180779;23;20177;-82
2022/03/16 01:39:36;;;;;;;21.20;15.43;;;;;;;;;;6201533;23;20698;-82
2022/03/16 01:42:02;;;;;;;24.43;18.77;;;;;;;;;;6201484;23;20147;-82
2022/03/16 01:44:46;;;;;;;33.00;20.03;;;;;;;;;;6204721;23;20149;-82
2022/03/16 01:47:13;;;;;;;17.17;14.73;;;;;;;;;;6206202;23;20144;-82
2022/03/16 01:49:39;;;;;;;61.73;25.57;;;;;;;;;;6203856;23;20170;-82
2022/03/16 01:52:05;;;;;;;54.07;27.23;;;;;;;;;;6204593;23;20146;-82
2022/03/16 01:54:31;;;;;;;70.47;33.10;;;;;;;;;;6204694;23;20150;-82
2022/03/16 01:56:57;;;;;;;43.63;23.20;;;;;;;;;;6203569;23;20154;-82
2022/03/16 01:59:23;;;;;;;29.27;19.03;;;;;;;;;;6202648;23;20213;-82
2022/03/16 02:01:49;;;;;;;19.87;15.33;;;;;;;;;;6198536;23;20153;-82
2022/03/16 02:04:15;;;;;;;26.50;17.43;;;;;;;;;;6202159;23;20147;-82
2022/03/16 02:06:41;;;;;;;20.43;16.07;;;;;;;;;;6201226;23;20144;-82
2022/03/16 02:09:07;;;;;;;20.97;16.57;;;;;;;;;;6154774;23;20181;-82
2022/03/16 02:11:33;;;;;;;20.37;14.67;;;;;;;;;;6183659;23;20150;-82
2022/03/16 02:13:59;;;;;;;19.30;14.93;;;;;;;;;;6207772;23;20159;-82
2022/03/16 02:16:25;;;;;;;17.73;14.07;;;;;;;;;;6203654;23;20174;-82
2022/03/16 02:18:52;;;;;;;17.80;15.53;;;;;;;;;;6202895;23;20167;-82
2022/03/16 02:21:19;;;;;;;19.30;15.70;;;;;;;;;;6202435;23;20575;-82
2022/03/16 02:23:45;;;;;;;17.40;14.47;;;;;;;;;;6200261;23;20198;-82
2022/03/16 02:26:14;;;;;;;17.20;14.93;;;;;;;;;;6201099;23;20159;-82
2022/03/16 02:28:40;;;;;;;17.37;14.90;;;;;;;;;;6199706;23;20182;-82
2022/03/16 02:31:06;;;;;;;16.83;15.10;;;;;;;;;;6172691;23;20205;-82
2022/03/16 02:33:32;;;;;;;20.30;15.57;;;;;;;;;;6199218;23;20150;-82
2022/03/16 02:35:58;;;;;;;18.60;15.10;;;;;;;;;;6198056;23;20216;-82
2022/03/16 02:38:24;;;;;;;17.17;13.40;;;;;;;;;;6197370;23;20166;-82
2022/03/16 02:40:50;;;;;;;18.83;14.87;;;;;;;;;;6198571;23;20150;-82
2022/03/16 02:43:16;;;;;;;20.33;15.30;;;;;;;;;;6200918;23;20150;-82
2022/03/16 02:45:42;;;;;;;18.37;15.17;;;;;;;;;;6201194;23;20516;-82
2022/03/16 02:48:08;;;;;;;15.90;14.20;;;;;;;;;;6199705;23;20220;-82
2022/03/16 02:50:34;;;;;;;16.33;14.50;;;;;;;;;;6200406;23;20159;-82
2022/03/16 02:53:01;;;;;;;15.47;13.00;;;;;;;;;;6173969;23;20158;-82
2022/03/16 02:55:27;;;;;;;15.97;14.27;;;;;;;;;;6194653;23;20177;-82
2022/03/16 02:57:53;;;;;;;15.53;13.63;;;;;;;;;;6199233;23;20170;-82
2022/03/16 03:00:20;;;;;;;15.23;13.23;;;;;;;;;;6200277;23;20150;-82
2022/03/16 03:02:46;;;;;;;17.10;14.53;;;;;;;;;;6199372;23;20153;-82
2022/03/16 03:05:12;;;;;;;16.90;15.10;;;;;;;;;;6200886;23;20549;-82
2022/03/16 03:07:38;;;;;;;18.40;15.73;;;;;;;;;;6200029;23;20154;-82
2022/03/16 03:10:04;;;;;;;19.20;13.80;;;;;;;;;;6199067;23;20169;-82
2022/03/16 03:12:34;;;;;;;14.87;13.30;;;;;;;;;;6198733;23;20202;-82
2022/03/16 03:15:00;;;;;;;17.07;14.17;;;;;;;;;;6197093;23;20185;-82
2022/03/16 03:17:26;;;;;;;18.07;14.73;;;;;;;;;;6197324;23;20147;-82
2022/03/16 03:19:52;;;;;;;19.83;14.67;;;;;;;;;;6197293;23;20162;-82
2022/03/16 03:22:18;;;;;;;16.83;15.03;;;;;;;;;;6197204;23;20151;-82
2022/03/16 03:24:44;;;;;;;16.20;13.83;;;;;;;;;;6196877;23;20789;-82
2022/03/16 03:27:10;;;;;;;22.70;14.80;;;;;;;;;;6197311;23;20150;-82
2022/03/16 03:29:36;;;;;;;16.33;14.63;;;;;;;;;;6196770;23;20186;-82
2022/03/16 03:32:02;;;;;;;15.90;14.30;;;;;;;;;;6200064;23;20197;-82
2022/03/16 03:34:29;;;;;;;18.17;14.10;;;;;;;;;;6199503;23;20233;-82
2022/03/16 03:36:55;;;;;;;16.20;14.20;;;;;;;;;;6200167;23;20186;-81
2022/03/16 03:39:49;;;;;;;16.40;14.53;;;;;;;;;;6221784;23;20173;-80
2022/03/16 03:42:39;;;;;;;21.67;16.13;;;;;;;;;;6218962;23;20478;-80
2022/03/16 03:45:17;;;;;;;19.23;15.33;;;;;;;;;;6137757;23;20149;-80
2022/03/16 03:47:52;;;;;;;20.13;15.63;;;;;;;;;;6186620;23;20174;-79
2022/03/16 03:50:44;;;;;;;16.67;14.97;;;;;;;;;;6221908;23;20138;-80
2022/03/16 03:53:13;;;;;;;17.40;14.90;;;;;;;;;;6182174;23;20208;-80
2022/03/16 03:55:39;;;;;;;18.77;15.87;;;;;;;;;;6221722;23;20181;-83
2022/03/16 03:58:05;;;;;;;17.63;15.13;;;;;;;;;;6222157;23;20195;-83
2022/03/16 04:00:36;;;;;;;19.63;16.30;;;;;;;;;;6220847;23;20146;-80
2022/03/16 04:03:02;;;;;;;19.57;16.80;;;;;;;;;;6195067;23;20153;-80
2022/03/16 04:05:28;;;;;;;19.90;14.77;;;;;;;;;;6222212;23;20233;-80
2022/03/16 04:07:54;;;;;;;18.00;14.07;;;;;;;;;;6221002;23;20170;-82
2022/03/16 04:10:21;;;;;;;17.27;13.63;;;;;;;;;;6221953;23;20225;-80
2022/03/16 04:12:49;;;;;;;16.00;14.37;;;;;;;;;;6195185;23;20149;-80
2022/03/16 04:15:38;;;;;;;14.17;12.70;;;;;;;;;;6221410;23;20175;-80
2022/03/16 04:18:07;;;;;;;16.30;13.70;;;;;;;;;;6194585;23;20173;-81
2022/03/16 04:20:34;;;;;;;17.17;13.93;;;;;;;;;;6194957;23;20150;-80
2022/03/16 04:23:09;;;;;;;15.30;13.70;;;;;;;;;;6222002;23;20180;-80
2022/03/16 04:25:51;;;;;;;22.37;13.80;;;;;;;;;;6221772;23;20145;-80
2022/03/16 04:28:17;;;;;;;15.10;13.50;;;;;;;;;;6221581;23;20176;-82
2022/03/16 04:30:43;;;;;;;14.13;12.60;;;;;;;;;;6221464;23;20200;-79
2022/03/16 04:33:09;;;;;;;19.17;13.40;;;;;;;;;;6221398;23;20154;-80
2022/03/16 04:35:38;;;;;;;14.17;12.60;;;;;;;;;;6221256;23;20188;-80
2022/03/16 04:38:04;;;;;;;15.20;13.23;;;;;;;;;;6220919;23;20654;-82
2022/03/16 04:40:33;;;;;;;14.07;12.67;;;;;;;;;;6221177;23;20203;-80
2022/03/16 04:42:59;;;;;;;13.93;12.43;;;;;;;;;;6221079;23;20236;-81
2022/03/16 04:45:25;;;;;;;15.77;11.97;;;;;;;;;;6194640;23;20158;-80
2022/03/16 04:47:51;;;;;;;14.30;12.80;;;;;;;;;;6221378;23;20644;-83
2022/03/16 04:50:18;;;;;;;13.83;12.33;;;;;;;;;;6221938;23;20531;-81
2022/03/16 04:52:47;;;;;;;13.87;12.40;;;;;;;;;;6222702;23;20156;-79
2022/03/16 04:55:13;;;;;;;14.67;13.13;;;;;;;;;;6196244;23;20631;-80
2022/03/16 04:57:45;;;;;;;16.67;13.30;;;;;;;;;;6222417;23;20181;-80
2022/03/16 05:00:12;;;;;;;14.00;12.57;;;;;;;;;;6220811;23;20134;-83
2022/03/16 05:02:38;;;;;;;14.63;13.07;;;;;;;;;;6220992;23;20150;-80
2022/03/16 05:05:09;;;;;;;19.23;15.23;;;;;;;;;;6221511;23;20491;-80
2022/03/16 05:07:39;;;;;;;19.63;14.33;;;;;;;;;;6221580;23;20174;-80
2022/03/16 05:10:06;;;;;;;18.93;14.43;;;;;;;;;;6192917;23;20540;-83
2022/03/16 05:12:39;;;;;;;17.93;14.30;;;;;;;;;;6222037;23;20220;-80
2022/03/16 05:15:15;;;;;;;18.10;14.13;;;;;;;;;;6222525;23;20174;-80
2022/03/16 05:17:50;;;;;;;17.17;13.03;;;;;;;;;;6195611;23;20181;-80
2022/03/16 05:20:18;;;;;;;14.07;12.60;;;;;;;;;;6197461;23;20180;-79
2022/03/16 05:22:56;;;;;;;;;;;;;;;;;;;;;
2022/03/16 05:25:24;;;;;;;15.57;14.00;;;;;;;;;;6223955;23;20184;-82
2022/03/16 05:27:50;;;;;;;15.80;14.23;;;;;;;;;;6195572;23;20707;-82
2022/03/16 05:30:16;;;;;;;18.13;13.60;;;;;;;;;;6223104;23;20159;-79
2022/03/16 05:32:44;;;;;;;16.20;14.30;;;;;;;;;;6223133;23;20618;-80
2022/03/16 05:35:23;;;;;;;15.60;13.80;;;;;;;;;;6196772;23;20185;-80
2022/03/16 05:37:52;;;;;;;15.93;13.77;;;;;;;;;;6222285;23;20212;-81
2022/03/16 05:40:20;;;;;;;15.00;13.03;;;;;;;;;;6221496;23;20157;-82
2022/03/16 05:43:15;;;;;;;18.23;13.33;;;;;;;;;;6222319;23;20156;-79
2022/03/16 05:45:44;;;;;;;18.57;15.03;;;;;;;;;;6209199;23;20233;-80
2022/03/16 05:48:10;;;;;;;18.50;15.00;;;;;;;;;;6223081;23;20173;-82
2022/03/16 05:50:46;;;;;;;17.93;14.03;;;;;;;;;;6223730;23;20168;-79
2022/03/16 05:53:15;;;;;;;17.43;14.43;;;;;;;;;;6223488;23;20205;-80
2022/03/16 05:55:44;;;;;;;19.87;14.23;;;;;;;;;;6222186;23;20175;-79
2022/03/16 05:58:16;;;;;;;16.77;14.00;;;;;;;;;;6196076;23;20193;-80
2022/03/16 06:00:42;;;;;;;16.73;14.30;;;;;;;;;;6221874;23;20164;-83
2022/03/16 06:03:08;;;;;;;17.07;13.27;;;;;;;;;;6222204;23;20133;-83
2022/03/16 06:05:34;;;;;;;17.97;13.77;;;;;;;;;;6221356;23;20161;-81
2022/03/16 06:08:01;;;;;;;17.00;13.33;;;;;;;;;;6221623;23;20173;-83
2022/03/16 06:10:27;;;;;;;16.40;13.70;;;;;;;;;;6229368;23;20204;-83
2022/03/16 06:12:54;;;;;;;14.90;13.37;;;;;;;;;;6237591;23;20168;-84
2022/03/16 06:15:20;;;;;;;18.53;14.67;;;;;;;;;;6235701;23;20174;-83
2022/03/16 06:17:46;;;;;;;17.40;14.27;;;;;;;;;;6196392;23;20227;-83
2022/03/16 06:20:12;;;;;;;16.50;14.77;;;;;;;;;;6222879;23;20602;-84
2022/03/16 06:22:38;;;;;;;18.27;14.53;;;;;;;;;;6196160;23;20157;-83
2022/03/16 06:25:04;;;;;;;16.20;13.50;;;;;;;;;;6223097;23;20234;-82
2022/03/16 06:27:31;;;;;;;17.63;14.20;;;;;;;;;;6221301;23;20178;-83
2022/03/16 06:29:57;;;;;;;25.20;15.10;;;;;;;;;;6221933;23;20150;-83
2022/03/16 06:32:23;;;;;;;20.43;16.10;;;;;;;;;;6195789;23;20160;-82
2022/03/16 06:34:49;;;;;;;18.20;15.03;;;;;;;;;;6222337;23;20241;-82
2022/03/16 06:37:15;;;;;;;19.67;15.23;;;;;;;;;;6221160;23;20264;-83
2022/03/16 06:39:42;;;;;;;18.87;14.83;;;;;;;;;;6219966;23;20133;-83
2022/03/16 06:42:08;;;;;;;21.57;16.03;;;;;;;;;;6195794;23;20153;-83
2022/03/16 06:44:35;;;;;;;21.33;16.07;;;;;;;;;;6194806;23;20228;-83
2022/03/16 06:47:01;;;;;;;18.73;15.10;;;;;;;;;;6222131;23;20158;-82
2022/03/16 06:49:27;;;;;;;19.80;15.00;;;;;;;;;;6222808;23;20184;-82
2022/03/16 06:51:53;;;;;;;18.83;14.97;;;;;;;;;;6221875;23;20528;-82
2022/03/16 06:54:19;;;;;;;24.07;16.13;;;;;;;;;;6221511;23;20469;-83
2022/03/16 06:56:45;;;;;;;22.77;17.03;;;;;;;;;;6222170;23;20197;-83
2022/03/16 06:59:11;;;;;;;24.77;16.60;;;;;;;;;;6194525;23;20219;-83
2022/03/16 07:01:37;;;;;;;23.70;17.73;;;;;;;;;;6194599;23;20163;-83
2022/03/16 07:04:03;;;;;;;23.17;17.40;;;;;;;;;;6221418;23;20180;-83
2022/03/16 07:06:30;;;;;;;27.87;18.30;;;;;;;;;;6194153;23;20693;-83
2022/03/16 07:08:56;;;;;;;23.10;17.60;;;;;;;;;;6220075;23;20169;-83
2022/03/16 07:11:22;;;;;;;25.00;18.40;;;;;;;;;;6193145;23;20164;-83
2022/03/16 07:16:33;;;;;;;27.03;17.90;;;;;;;;;;6221023;23;20177;-83
2022/03/16 07:18:59;;;;;;;26.23;17.60;;;;;;;;;;6222160;23;20245;-83
2022/03/16 07:21:25;;;;;;;24.57;17.60;;;;;;;;;;6220719;23;20150;-84
2022/03/16 07:23:51;;;;;;;22.17;17.20;;;;;;;;;;6221089;23;20160;-84
2022/03/16 07:26:17;;;;;;;27.07;18.10;;;;;;;;;;6220957;23;20178;-83
2022/03/16 07:28:43;;;;;;;21.70;17.63;;;;;;;;;;6220349;23;20213;-82
2022/03/16 07:31:09;;;;;;;24.50;18.33;;;;;;;;;;6220237;23;20156;-83
2022/03/16 07:33:35;;;;;;;24.30;18.10;;;;;;;;;;6219533;23;20157;-86
2022/03/16 07:36:02;;;;;;;25.00;17.80;;;;;;;;;;6219597;23;20201;-83
2022/03/16 07:38:28;;;;;;;25.47;18.40;;;;;;;;;;6220107;23;20192;-84
2022/03/16 07:40:54;;;;;;;26.13;18.27;;;;;;;;;;6220539;23;20146;-83
2022/03/16 07:43:20;;;;;;;23.57;17.47;;;;;;;;;;6219991;23;20152;-83
2022/03/16 07:45:47;;;;;;;30.97;17.53;;;;;;;;;;6218293;23;20541;-81
2022/03/16 07:48:12;;;;;;;24.90;17.90;;;;;;;;;;6220036;23;20177;-84
2022/03/16 07:50:39;;;;;;;24.23;17.23;;;;;;;;;;6193572;23;20162;-83
2022/03/16 07:53:08;;;;;;;25.03;17.27;;;;;;;;;;6193855;23;20153;-84
2022/03/16 07:55:37;;;;;;;28.87;17.43;;;;;;;;;;6220765;23;20189;-85
2022/03/16 07:58:03;;;;;;;22.30;17.70;;;;;;;;;;6194688;23;20623;-83
2022/03/16 08:00:29;;;;;;;25.27;17.80;;;;;;;;;;6194574;23;20161;-83
2022/03/16 08:02:55;;;;;;;19.90;16.67;;;;;;;;;;6221305;23;20147;-85
2022/03/16 08:05:22;;;;;;;23.73;17.40;;;;;;;;;;6221023;23;20225;-83
2022/03/16 08:07:48;;;;;;;21.70;17.37;;;;;;;;;;6193307;23;20639;-83
2022/03/16 08:10:14;;;;;;;23.40;17.10;;;;;;;;;;6220567;23;20154;-82
2022/03/16 08:12:40;;;;;;;20.13;16.33;;;;;;;;;;6193367;23;20159;-83
2022/03/16 08:15:06;;;;;;;21.53;17.93;;;;;;;;;;6193217;23;20191;-83
2022/03/16 08:17:32;;;;;;;24.37;17.20;;;;;;;;;;6219350;23;20164;-85
2022/03/16 08:19:58;;;;;;;23.23;16.87;;;;;;;;;;6190955;23;20207;-83
2022/03/16 08:22:27;;;;;;;20.20;16.50;;;;;;;;;;6219456;23;20516;-86
2022/03/16 08:24:53;;;;;;;26.37;16.60;;;;;;;;;;6220386;23;20149;-84
2022/03/16 08:27:19;;;;;;;22.70;16.97;;;;;;;;;;6193591;23;20176;-84
2022/03/16 08:29:46;;;;;;;19.40;15.90;;;;;;;;;;6220255;23;20589;-84
2022/03/16 08:32:12;;;;;;;23.43;17.17;;;;;;;;;;6220199;23;20655;-83
2022/03/16 08:34:38;;;;;;;20.17;15.73;;;;;;;;;;6194135;23;20152;-84
2022/03/16 08:37:04;;;;;;;26.77;18.23;;;;;;;;;;6220066;23;20176;-84
2022/03/16 08:39:30;;;;;;;26.03;17.53;;;;;;;;;;6194749;23;20489;-84
2022/03/16 08:41:57;;;;;;;22.43;17.27;;;;;;;;;;6195181;23;20164;-85
2022/03/16 08:44:23;;;;;;;26.67;17.50;;;;;;;;;;6220909;23;20479;-84
2022/03/16 08:46:50;;;;;;;19.07;16.30;;;;;;;;;;6221947;23;20157;-84
2022/03/16 08:49:21;;;;;;;19.97;17.57;;;;;;;;;;6223723;23;20153;-84
2022/03/16 08:51:47;;;;;;;20.73;17.03;;;;;;;;;;6223634;23;20471;-84
2022/03/16 08:54:13;;;;;;;25.93;17.73;;;;;;;;;;6221236;23;20484;-84
2022/03/16 08:56:39;;;;;;;23.27;17.27;;;;;;;;;;6222759;23;20192;-84
2022/03/16 08:59:06;;;;;;;21.37;17.20;;;;;;;;;;6222862;23;20240;-84
2022/03/16 09:01:32;;;;;;;22.97;16.87;;;;;;;;;;6223901;23;20164;-84
2022/03/16 09:03:58;;;;;;;18.17;16.27;;;;;;;;;;6223551;23;20153;-84
2022/03/16 09:06:24;;;;;;;23.50;16.93;;;;;;;;;;6223561;23;20159;-84
2022/03/16 09:08:50;;;;;;;21.43;15.93;;;;;;;;;;6197001;23;20260;-83
2022/03/16 09:11:16;;;;;;;21.20;16.23;;;;;;;;;;6196797;23;20169;-84
2022/03/16 09:13:42;;;;;;;22.07;15.63;;;;;;;;;;6197067;23;20189;-87
2022/03/16 09:16:08;;;;;;;19.80;15.10;;;;;;;;;;6197035;23;20239;-85
2022/03/16 09:18:34;;;;;;;22.83;15.57;;;;;;;;;;6224031;23;20498;-84
2022/03/16 09:21:01;;;;;;;19.60;15.73;;;;;;;;;;6194678;23;20169;-85
2022/03/16 09:23:31;;;;;;;18.57;15.77;;;;;;;;;;6196271;23;20154;-84
2022/03/16 09:26:06;;;;;;;20.13;15.40;;;;;;;;;;6194405;23;20158;-85
2022/03/16 09:28:33;;;;;;;24.17;16.00;;;;;;;;;;6219128;23;20177;-85
2022/03/16 09:30:59;;;;;;;19.77;14.80;;;;;;;;;;6220225;23;20153;-86
2022/03/16 09:33:25;;;;;;;18.03;13.57;;;;;;;;;;6223118;23;20181;-85
2022/03/16 09:35:54;;;;;;;17.90;14.37;;;;;;;;;;6195642;23;20177;-85
2022/03/16 09:38:24;;;;;;;18.43;14.27;;;;;;;;;;6222514;23;20257;-85
2022/03/16 09:40:54;;;;;;;17.43;13.57;;;;;;;;;;6223280;23;20150;-85
2022/03/16 09:43:38;;;;;;;19.57;14.13;;;;;;;;;;6225706;23;20494;-85
2022/03/16 10:01:25;;;;;;;21.40;14.83;;;;;;;;;;6227864;22;20204;-85
2022/03/16 10:04:03;;;;;;;16.17;14.47;;;;;;;;;;6214977;23;20134;-85
2022/03/16 10:06:32;;;;;;;16.80;14.90;;;;;;;;;;6230123;23;20205;-85
2022/03/16 10:15:14;;;;;;;19.23;15.50;;;;;;;;;;6224542;23;20153;-85
2022/03/16 10:17:47;;;;;;;19.50;15.27;;;;;;;;;;6192283;23;20301;-85
2022/03/16 10:36:10;;;;;;;20.30;16.13;;;;;;;;;;6075849;23;20188;-86
2022/03/16 10:55:18;;;;;;;;;;;;;;;;;;;;;
2022/03/16 10:57:45;;;;;;;17.10;14.10;;;;;;;;;;6195703;23;20201;-86
2022/03/16 11:00:21;;;;;;;16.17;14.37;;;;;;;;;;6169284;23;20155;-86
2022/03/16 11:02:48;;;;;;;17.57;15.83;;;;;;;;;;6163332;23;20155;-86
2022/03/16 11:05:20;;;;;;;16.93;15.10;;;;;;;;;;6185559;23;20588;-86
2022/03/16 11:07:50;;;;;;;17.17;14.63;;;;;;;;;;6168064;23;20250;-85
2022/03/16 11:10:28;;;;;;;19.90;16.23;;;;;;;;;;6193097;23;20162;-86
2022/03/16 11:15:44;;;;;;;17.10;14.93;;;;;;;;;;6172456;23;20225;-85
2022/03/16 11:18:12;;;;;;;20.60;14.63;;;;;;;;;;6191434;23;20174;-86
2022/03/16 11:20:39;;;;;;;19.07;14.97;;;;;;;;;;6195811;23;20504;-85
2022/03/16 11:26:14;;;;;;;16.67;14.83;;;;;;;;;;6195917;23;20490;-86
2022/03/16 11:28:59;;;;;;;16.37;14.70;;;;;;;;;;6195775;23;20174;-86
2022/03/16 11:31:51;;;;;;;19.30;15.27;;;;;;;;;;6195516;23;20127;-86
2022/03/16 11:34:30;;;;;;;17.07;15.27;;;;;;;;;;6168267;23;20178;-84
2022/03/16 11:37:03;;;;;;;18.50;15.23;;;;;;;;;;6194708;23;20182;-84
2022/03/16 11:39:39;;;;;;;16.63;14.97;;;;;;;;;;6194112;23;20486;-87
2022/03/16 11:42:11;;;;;;;16.63;14.83;;;;;;;;;;6194866;23;20158;-85
2022/03/16 11:44:50;;;;;;;16.30;14.67;;;;;;;;;;6191761;23;20150;-85
2022/03/16 11:47:35;;;;;;;18.53;14.93;;;;;;;;;;6192677;23;20163;-85
2022/03/16 11:50:28;;;;;;;22.13;16.40;;;;;;;;;;6195136;23;20161;-85
2022/03/16 11:53:05;;;;;;;20.67;14.73;;;;;;;;;;6166784;23;20153;-84
2022/03/16 11:55:59;;;;;;;18.03;16.23;;;;;;;;;;6192839;23;20174;-84
2022/03/16 11:58:28;;;;;;;18.87;16.00;;;;;;;;;;6192208;23;20490;-85
2022/03/16 12:01:13;;;;;;;20.90;16.50;;;;;;;;;;6167413;23;20177;-84
2022/03/16 12:03:52;;;;;;;18.67;16.77;;;;;;;;;;6192353;23;20169;-87
2022/03/16 12:06:23;;;;;;;21.00;17.00;;;;;;;;;;6195432;23;20637;-86
2022/03/16 12:08:53;;;;;;;22.23;17.57;;;;;;;;;;6168538;23;20190;-85
2022/03/16 12:14:28;;;;;;;21.87;17.27;;;;;;;;;;6192890;23;20145;-85
2022/03/16 12:22:58;;;;;;;21.83;18.27;;;;;;;;;;6166572;23;20193;-87
2022/03/16 12:25:46;;;;;;;27.80;17.70;;;;;;;;;;6166081;23;20201;-86
2022/03/16 12:37:56;;;;;;;28.73;19.57;;;;;;;;;;6070054;23;20213;-86
2022/03/16 12:43:30;;;;;;;23.13;19.23;;;;;;;;;;6165733;23;20187;-85
2022/03/16 12:46:15;;;;;;;27.57;19.57;;;;;;;;;;6165221;23;20131;-87
2022/03/16 12:48:47;;;;;;;27.10;20.50;;;;;;;;;;6165812;23;20178;-86
2022/03/16 12:51:16;;;;;;;31.30;20.40;;;;;;;;;;6165513;23;20134;-84
2022/03/16 12:53:45;;;;;;;30.87;22.87;;;;;;;;;;6166553;23;20161;-86
2022/03/16 12:56:12;;;;;;;29.60;22.23;;;;;;;;;;6173372;23;20186;-86
2022/03/16 12:58:41;;;;;;;29.00;20.00;;;;;;;;;;6150686;23;20218;-89
2022/03/16 13:01:18;;;;;;;31.50;21.87;;;;;;;;;;6143111;23;20204;-86
2022/03/16 13:03:49;;;;;;;28.07;20.93;;;;;;;;;;6142093;23;20201;-87
2022/03/16 13:06:16;;;;;;;29.20;21.70;;;;;;;;;;6141615;23;20157;-87
2022/03/16 13:08:46;;;;;;;28.73;20.57;;;;;;;;;;6141489;23;20174;-87
2022/03/16 13:11:19;;;;;;;28.67;21.10;;;;;;;;;;6140816;23;20163;-86
2022/03/16 13:13:52;;;;;;;28.70;19.73;;;;;;;;;;6166624;23;20275;-85
2022/03/16 13:16:37;;;;;;;32.27;20.43;;;;;;;;;;6141151;23;20181;-85
2022/03/16 13:19:31;;;;;;;28.30;20.17;;;;;;;;;;6167606;23;20206;-86
2022/03/16 13:22:05;;;;;;;30.70;21.27;;;;;;;;;;6087543;23;20215;-85
2022/03/16 13:24:32;;;;;;;25.17;19.63;;;;;;;;;;6166069;23;20146;-86
2022/03/16 13:26:58;;;;;;;29.30;19.57;;;;;;;;;;6139061;23;20497;-86
2022/03/16 13:29:33;;;;;;;29.53;21.03;;;;;;;;;;6139044;23;20155;-86
2022/03/16 13:32:01;;;;;;;26.00;20.70;;;;;;;;;;6139893;23;20146;-85
2022/03/16 13:34:32;;;;;;;27.33;20.07;;;;;;;;;;6163295;23;20163;-84
2022/03/16 13:37:02;;;;;;;30.53;21.33;;;;;;;;;;6163875;23;20171;-83
2022/03/16 13:39:30;;;;;;;28.17;20.00;;;;;;;;;;6164278;23;20153;-85
2022/03/16 13:42:12;;;;;;;31.30;20.93;;;;;;;;;;6164157;23;20490;-83
2022/03/16 13:44:40;;;;;;;31.80;21.40;;;;;;;;;;6163697;23;20137;-82
2022/03/16 13:47:12;;;;;;;29.57;22.13;;;;;;;;;;6164014;23;20159;-83
2022/03/16 13:49:38;;;;;;;30.80;21.83;;;;;;;;;;6163579;23;20181;-85
2022/03/16 13:52:06;;;;;;;31.33;22.03;;;;;;;;;;6162913;23;20181;-85
2022/03/16 13:54:32;;;;;;;32.13;22.00;;;;;;;;;;6164352;23;20162;-83
2022/03/16 13:57:28;;;;;;;29.33;21.17;;;;;;;;;;6164616;23;20210;-84
2022/03/16 13:59:58;;;;;;;30.17;20.47;;;;;;;;;;6134452;23;20158;-84
2022/03/16 14:02:28;;;;;;;31.57;21.00;;;;;;;;;;6137911;23;20158;-85
2022/03/16 14:04:58;;;;;;;34.03;22.20;;;;;;;;;;6162819;23;20154;-85
2022/03/16 14:07:41;;;;;;;34.37;22.67;;;;;;;;;;6161556;23;20616;-86
2022/03/16 14:10:08;;;;;;;31.10;21.37;;;;;;;;;;6164133;23;20139;-85
2022/03/16 14:12:39;;;;;;;30.87;22.00;;;;;;;;;;6164182;23;20163;-85
2022/03/16 14:15:22;;;;;;;32.57;22.27;;;;;;;;;;6163686;23;20147;-85
2022/03/16 14:18:01;;;;;;;30.43;21.00;;;;;;;;;;6163719;23;20193;-85
2022/03/16 14:20:41;;;;;;;35.53;22.43;;;;;;;;;;6138881;23;20498;-85
2022/03/16 14:23:16;;;;;;;33.20;22.60;;;;;;;;;;6165346;23;20153;-84
2022/03/16 14:25:47;;;;;;;36.70;23.43;;;;;;;;;;6164849;23;20139;-84
2022/03/16 14:28:22;;;;;;;32.67;22.07;;;;;;;;;;6163341;23;20251;-84
2022/03/16 14:30:57;;;;;;;34.70;21.87;;;;;;;;;;6164837;23;20141;-84
2022/03/16 14:33:30;;;;;;;32.70;22.40;;;;;;;;;;6138314;23;20192;-84
2022/03/16 14:38:46;;;;;;;35.47;23.90;;;;;;;;;;6164100;23;20218;-85
2022/03/16 14:41:18;;;;;;;36.00;23.50;;;;;;;;;;6163596;23;20147;-84
2022/03/16 14:44:08;;;;;;;36.70;23.10;;;;;;;;;;6137455;23;20163;-83
2022/03/16 14:47:19;;;;;;;35.10;22.63;;;;;;;;;;6143852;23;20540;-84
2022/03/16 14:49:27;;;;;;;33.33;23.13;;;;;;;;;;6152843;23;20159;-84
2022/03/16 14:51:58;;;;;;;34.13;22.53;;;;;;;;;;6163659;23;20138;-84
2022/03/16 14:54:27;;;;;;;34.63;23.27;;;;;;;;;;6164041;23;20245;-86
2022/03/16 14:56:56;;;;;;;36.50;23.83;;;;;;;;;;6164478;23;20261;-83
2022/03/16 14:59:41;;;;;;;34.67;22.63;;;;;;;;;;6141579;23;20230;-84
2022/03/16 15:02:07;;;;;;;31.80;22.53;;;;;;;;;;6136329;23;20155;-85
2022/03/16 15:04:34;;;;;;;35.17;21.83;;;;;;;;;;6161736;23;20215;-84
2022/03/16 15:07:03;;;;;;;42.47;23.63;;;;;;;;;;6162427;23;20705;-85
2022/03/16 15:09:29;;;;;;;32.20;22.10;;;;;;;;;;6162581;23;20162;-85
2022/03/16 15:11:55;;;;;;;34.13;21.50;;;;;;;;;;6137759;23;20154;-84
2022/03/16 15:14:27;;;;;;;33.83;22.90;;;;;;;;;;6163706;23;20159;-86
2022/03/16 15:16:53;;;;;;;35.53;23.00;;;;;;;;;;6136574;23;20218;-85
2022/03/16 15:19:24;;;;;;;38.93;23.33;;;;;;;;;;6164502;23;20176;-85
2022/03/16 15:21:50;;;;;;;34.57;23.13;;;;;;;;;;6162803;23;20198;-84
2022/03/16 15:24:16;;;;;;;34.00;23.10;;;;;;;;;;6136547;23;20159;-85
2022/03/16 15:26:45;;;;;;;34.77;23.90;;;;;;;;;;6163063;23;20170;-85
2022/03/16 15:29:17;;;;;;;35.70;22.27;;;;;;;;;;6162793;23;20175;-85
2022/03/16 15:31:46;;;;;;;37.33;23.67;;;;;;;;;;6162003;23;20131;-85
2022/03/16 15:34:14;;;;;;;34.80;24.00;;;;;;;;;;6135077;23;20186;-87
2022/03/16 15:36:40;;;;;;;37.63;23.17;;;;;;;;;;6172023;23;20175;-87
2022/03/16 15:39:07;;;;;;;32.60;22.33;;;;;;;;;;6152698;23;20175;-86
2022/03/16 15:44:25;;;;;;;36.87;23.77;;;;;;;;;;6164689;23;20149;-85
2022/03/16 15:46:51;;;;;;;42.43;25.03;;;;;;;;;;6138477;23;20164;-87
2022/03/16 15:49:20;;;;;;;36.60;23.93;;;;;;;;;;6163813;23;20161;-86
2022/03/16 15:51:59;;;;;;;36.83;23.70;;;;;;;;;;6164902;23;20155;-84
2022/03/16 15:54:55;;;;;;;37.80;23.70;;;;;;;;;;6139596;23;20209;-83
2022/03/16 15:57:25;;;;;;;36.47;23.20;;;;;;;;;;6078117;23;20198;-84
2022/03/16 15:59:51;;;;;;;37.30;23.57;;;;;;;;;;6163601;23;20230;-86
2022/03/16 16:02:17;;;;;;;34.90;22.67;;;;;;;;;;6164424;23;20237;-84